sensor_id;sensor_type;location;lat;lon;timestamp;temperature;humidity
31725;DHT22;18306;40.960;14.836;2024-01-30T17:49:35;22.80;52.50
31725;DHT22;18306;40.960;14.836;2024-01-30T17:53:24;22.40;51.40
31725;DHT22;18306;40.960;14.836;2024-01-30T17:56:18;22.10;51.70
31725;DHT22;18306;40.960;14.836;2024-01-30T17:59:06;21.90;52.50
31725;DHT22;18306;40.960;14.836;2024-01-30T18:15:24;21.50;52.70
31725;DHT22;18306;40.960;14.836;2024-01-30T18:22:46;23.50;53.30
31725;DHT22;18306;40.960;14.836;2024-01-30T18:28:53;24.20;48.60
31725;DHT22;18306;40.960;14.836;2024-01-30T18:31:23;23.70;50.50
31725;DHT22;18306;40.960;14.836;2024-01-30T18:33:51;23.50;50.70
31725;DHT22;18306;40.960;14.836;2024-01-30T18:36:20;23.40;51.30
31725;DHT22;18306;40.960;14.836;2024-01-30T19:00:34;150.00;100.00
31725;DHT22;18306;40.960;14.836;2024-01-30T19:03:03;8.50;67.40
31725;DHT22;18306;40.960;14.836;2024-01-30T19:05:31;8.50;67.10
31725;DHT22;18306;40.960;14.836;2024-01-30T19:07:59;8.00;69.00
31725;DHT22;18306;40.960;14.836;2024-01-30T19:10:26;7.80;69.90
31725;DHT22;18306;40.960;14.836;2024-01-30T19:12:56;8.00;69.50
31725;DHT22;18306;40.960;14.836;2024-01-30T19:15:23;7.90;69.60
31725;DHT22;18306;40.960;14.836;2024-01-30T19:17:50;7.40;70.50
31725;DHT22;18306;40.960;14.836;2024-01-30T19:20:19;7.30;71.70
31725;DHT22;18306;40.960;14.836;2024-01-30T19:22:49;7.30;72.30
31725;DHT22;18306;40.960;14.836;2024-01-30T19:25:16;7.20;72.70
31725;DHT22;18306;40.960;14.836;2024-01-30T19:28:15;6.90;72.00
31725;DHT22;18306;40.960;14.836;2024-01-30T19:39:19;6.70;74.40
31725;DHT22;18306;40.960;14.836;2024-01-30T19:42:20;6.80;72.90
31725;DHT22;18306;40.960;14.836;2024-01-30T19:44:47;6.80;74.00
31725;DHT22;18306;40.960;14.836;2024-01-30T19:47:14;6.70;73.60
31725;DHT22;18306;40.960;14.836;2024-01-30T19:49:41;6.50;74.40
31725;DHT22;18306;40.960;14.836;2024-01-30T19:52:09;6.50;74.70
31725;DHT22;18306;40.960;14.836;2024-01-30T19:54:52;6.40;74.60
31725;DHT22;18306;40.960;14.836;2024-01-30T19:57:20;6.40;74.20
31725;DHT22;18306;40.960;14.836;2024-01-30T19:59:47;6.10;74.20
31725;DHT22;18306;40.960;14.836;2024-01-30T20:02:15;5.80;75.40
31725;DHT22;18306;40.960;14.836;2024-01-30T20:04:45;5.70;76.10
31725;DHT22;18306;40.960;14.836;2024-01-30T20:07:12;5.80;76.30
31725;DHT22;18306;40.960;14.836;2024-01-30T20:09:40;5.80;76.40
31725;DHT22;18306;40.960;14.836;2024-01-30T20:15:40;5.60;76.60
31725;DHT22;18306;40.960;14.836;2024-01-30T20:18:08;5.60;76.40
31725;DHT22;18306;40.960;14.836;2024-01-30T20:20:44;5.60;76.40
31725;DHT22;18306;40.960;14.836;2024-01-30T20:23:11;5.40;76.80
31725;DHT22;18306;40.960;14.836;2024-01-30T20:25:39;4.90;78.50
31725;DHT22;18306;40.960;14.836;2024-01-30T20:28:06;4.90;79.50
31725;DHT22;18306;40.960;14.836;2024-01-30T20:30:33;5.00;79.00
31725;DHT22;18306;40.960;14.836;2024-01-30T20:33:01;5.00;78.80
31725;DHT22;18306;40.960;14.836;2024-01-30T20:35:28;5.20;78.40
31725;DHT22;18306;40.960;14.836;2024-01-30T20:37:55;5.30;77.90
31725;DHT22;18306;40.960;14.836;2024-01-30T20:40:22;5.10;77.00
31725;DHT22;18306;40.960;14.836;2024-01-30T20:42:53;5.00;76.00
31725;DHT22;18306;40.960;14.836;2024-01-30T20:45:29;4.80;76.90
31725;DHT22;18306;40.960;14.836;2024-01-30T20:48:06;4.60;77.60
31725;DHT22;18306;40.960;14.836;2024-01-30T20:50:40;4.80;77.80
31725;DHT22;18306;40.960;14.836;2024-01-30T20:53:08;4.90;77.20
31725;DHT22;18306;40.960;14.836;2024-01-30T20:55:37;5.00;76.60
31725;DHT22;18306;40.960;14.836;2024-01-30T20:58:04;4.80;75.40
31725;DHT22;18306;40.960;14.836;2024-01-30T21:00:31;4.80;76.50
31725;DHT22;18306;40.960;14.836;2024-01-30T21:02:58;4.70;77.20
31725;DHT22;18306;40.960;14.836;2024-01-30T21:05:25;4.40;78.40
31725;DHT22;18306;40.960;14.836;2024-01-30T21:07:53;4.60;78.70
31725;DHT22;18306;40.960;14.836;2024-01-30T21:10:20;4.60;77.80
31725;DHT22;18306;40.960;14.836;2024-01-30T21:12:53;4.30;79.10
31725;DHT22;18306;40.960;14.836;2024-01-30T21:15:20;4.10;80.80
31725;DHT22;18306;40.960;14.836;2024-01-30T21:17:57;4.20;81.10
31725;DHT22;18306;40.960;14.836;2024-01-30T21:20:24;4.30;80.80
31725;DHT22;18306;40.960;14.836;2024-01-30T21:22:52;4.30;80.40
31725;DHT22;18306;40.960;14.836;2024-01-30T21:25:21;4.40;80.20
31725;DHT22;18306;40.960;14.836;2024-01-30T21:27:50;4.40;79.90
31725;DHT22;18306;40.960;14.836;2024-01-30T21:30:19;4.10;80.80
31725;DHT22;18306;40.960;14.836;2024-01-30T21:32:50;4.00;79.90
31725;DHT22;18306;40.960;14.836;2024-01-30T21:35:18;3.60;79.80
31725;DHT22;18306;40.960;14.836;2024-01-30T21:37:45;3.50;80.80
31725;DHT22;18306;40.960;14.836;2024-01-30T21:40:12;3.50;80.80
31725;DHT22;18306;40.960;14.836;2024-01-30T21:42:43;3.60;80.90
31725;DHT22;18306;40.960;14.836;2024-01-30T21:45:13;3.80;81.00
31725;DHT22;18306;40.960;14.836;2024-01-30T21:47:42;3.90;79.90
31725;DHT22;18306;40.960;14.836;2024-01-30T21:50:09;3.90;80.10
31725;DHT22;18306;40.960;14.836;2024-01-30T21:52:42;3.80;80.30
31725;DHT22;18306;40.960;14.836;2024-01-30T21:55:09;3.90;80.10
31725;DHT22;18306;40.960;14.836;2024-01-30T21:57:36;3.80;79.80
31725;DHT22;18306;40.960;14.836;2024-01-30T22:00:05;3.60;79.40
31725;DHT22;18306;40.960;14.836;2024-01-30T22:02:35;3.40;79.70
31725;DHT22;18306;40.960;14.836;2024-01-30T22:05:04;3.30;80.30
31725;DHT22;18306;40.960;14.836;2024-01-30T22:07:34;3.50;80.40
31725;DHT22;18306;40.960;14.836;2024-01-30T22:10:05;3.60;79.70
31725;DHT22;18306;40.960;14.836;2024-01-30T22:12:32;3.60;79.60
31725;DHT22;18306;40.960;14.836;2024-01-30T22:15:03;3.50;79.30
31725;DHT22;18306;40.960;14.836;2024-01-30T22:17:30;3.30;79.90
31725;DHT22;18306;40.960;14.836;2024-01-30T22:19:57;3.10;80.80
31725;DHT22;18306;40.960;14.836;2024-01-30T22:22:27;3.10;80.80
31725;DHT22;18306;40.960;14.836;2024-01-30T22:24:55;3.40;79.50
31725;DHT22;18306;40.960;14.836;2024-01-30T22:27:22;3.30;77.90
31725;DHT22;18306;40.960;14.836;2024-01-30T22:29:49;3.00;78.20
31725;DHT22;18306;40.960;14.836;2024-01-30T22:32:16;2.80;80.60
31725;DHT22;18306;40.960;14.836;2024-01-30T22:34:45;2.70;81.70
31725;DHT22;18306;40.960;14.836;2024-01-30T22:37:13;2.60;82.20
31725;DHT22;18306;40.960;14.836;2024-01-30T22:39:44;2.40;83.00
31725;DHT22;18306;40.960;14.836;2024-01-30T22:42:11;2.60;83.10
31725;DHT22;18306;40.960;14.836;2024-01-30T22:44:38;2.50;82.00
31725;DHT22;18306;40.960;14.836;2024-01-30T22:47:06;2.70;79.50
31725;DHT22;18306;40.960;14.836;2024-01-30T22:49:34;2.50;79.10
31725;DHT22;18306;40.960;14.836;2024-01-30T22:52:02;2.60;80.50
31725;DHT22;18306;40.960;14.836;2024-01-30T22:54:32;2.50;81.20
31725;DHT22;18306;40.960;14.836;2024-01-30T22:57:00;2.50;81.90
31725;DHT22;18306;40.960;14.836;2024-01-30T22:59:27;2.50;82.00
31725;DHT22;18306;40.960;14.836;2024-01-30T23:01:54;2.50;82.00
31725;DHT22;18306;40.960;14.836;2024-01-30T23:04:21;2.40;80.30
31725;DHT22;18306;40.960;14.836;2024-01-30T23:06:48;2.50;81.00
31725;DHT22;18306;40.960;14.836;2024-01-30T23:09:15;2.40;80.20
31725;DHT22;18306;40.960;14.836;2024-01-30T23:11:43;2.60;80.80
31725;DHT22;18306;40.960;14.836;2024-01-30T23:14:10;2.50;81.70
31725;DHT22;18306;40.960;14.836;2024-01-30T23:16:37;2.50;82.00
31725;DHT22;18306;40.960;14.836;2024-01-30T23:19:04;2.50;80.20
31725;DHT22;18306;40.960;14.836;2024-01-30T23:21:32;2.10;81.80
31725;DHT22;18306;40.960;14.836;2024-01-30T23:23:59;2.20;83.00
31725;DHT22;18306;40.960;14.836;2024-01-30T23:26:26;2.50;81.90
31725;DHT22;18306;40.960;14.836;2024-01-30T23:28:53;2.70;80.70
31725;DHT22;18306;40.960;14.836;2024-01-30T23:31:20;2.60;79.60
31725;DHT22;18306;40.960;14.836;2024-01-30T23:33:48;2.30;80.10
31725;DHT22;18306;40.960;14.836;2024-01-30T23:36:16;2.10;81.50
31725;DHT22;18306;40.960;14.836;2024-01-30T23:38:43;2.10;82.70
31725;DHT22;18306;40.960;14.836;2024-01-30T23:41:11;2.30;82.20
31725;DHT22;18306;40.960;14.836;2024-01-30T23:43:38;2.20;81.90
31725;DHT22;18306;40.960;14.836;2024-01-30T23:46:05;2.00;82.40
31725;DHT22;18306;40.960;14.836;2024-01-30T23:48:32;1.80;83.30
31725;DHT22;18306;40.960;14.836;2024-01-30T23:50:59;1.90;83.20
31725;DHT22;18306;40.960;14.836;2024-01-30T23:53:26;2.30;82.40
31725;DHT22;18306;40.960;14.836;2024-01-30T23:55:53;2.20;80.30
31725;DHT22;18306;40.960;14.836;2024-01-30T23:58:20;2.00;80.50
